Time;durP1;ratioP1;P1;durP2;ratioP2;P2;SDS_P1;SDS_P2;PMS_P1;PMS_P2;Temp;Humidity;BMP_temperature;BMP_pressure;BME280_temperature;BME280_humidity;BME280_pressure;Samples;Min_cycle;Max_cycle;Signal;HPM_P1;HPM_P2
2022/07/25 00:01:51;;;;;;;3.83;1.70;;;;;;;;;;5091968;28;20067;-65
2022/07/25 00:04:17;;;;;;;3.28;2.05;;;;;;;;;;5088437;28;20022;-64
2022/07/25 00:06:43;;;;;;;4.88;2.22;;;;;;;;;;5092943;28;20436;-64
2022/07/25 00:09:09;;;;;;;5.45;1.95;;;;;;;;;;5083456;28;20037;-64
2022/07/25 00:11:34;;;;;;;4.97;1.73;;;;;;;;;;5072844;28;20475;-64
2022/07/25 00:14:00;;;;;;;5.03;1.88;;;;;;;;;;5073706;28;20385;-63
2022/07/25 00:16:27;;;;;;;4.15;2.15;;;;;;;;;;5093093;28;20024;-64
2022/07/25 00:18:53;;;;;;;4.40;2.10;;;;;;;;;;5092828;28;20111;-64
2022/07/25 00:21:18;;;;;;;4.10;1.80;;;;;;;;;;5092945;28;20120;-64
2022/07/25 00:23:44;;;;;;;4.72;1.92;;;;;;;;;;5093018;28;20025;-64
2022/07/25 00:26:09;;;;;;;11.52;2.10;;;;;;;;;;5091372;28;20056;-64
2022/07/25 00:28:35;;;;;;;10.18;2.10;;;;;;;;;;5092932;28;20032;-64
2022/07/25 00:31:00;;;;;;;4.63;2.08;;;;;;;;;;5092859;28;20084;-64
2022/07/25 00:33:26;;;;;;;5.63;1.92;;;;;;;;;;5092876;28;20035;-65
2022/07/25 00:35:51;;;;;;;4.07;2.00;;;;;;;;;;5092830;28;20469;-65
2022/07/25 00:38:17;;;;;;;5.10;1.80;;;;;;;;;;5092665;28;20054;-64
2022/07/25 00:40:42;;;;;;;6.75;2.10;;;;;;;;;;5092864;28;20023;-65
2022/07/25 00:43:08;;;;;;;6.68;2.20;;;;;;;;;;5092767;28;20020;-66
2022/07/25 00:45:34;;;;;;;6.18;2.00;;;;;;;;;;5092635;28;20060;-65
2022/07/25 00:47:59;;;;;;;5.15;2.25;;;;;;;;;;5091281;28;20089;-65
2022/07/25 00:50:25;;;;;;;5.45;1.83;;;;;;;;;;5091399;28;20137;-65
2022/07/25 00:52:51;;;;;;;4.68;1.77;;;;;;;;;;5091077;28;20108;-65
2022/07/25 00:55:17;;;;;;;10.18;2.63;;;;;;;;;;5091251;28;20108;-64
2022/07/25 00:57:43;;;;;;;6.15;2.20;;;;;;;;;;5091229;28;20035;-65
2022/07/25 01:00:12;;;;;;;4.32;1.98;;;;;;;;;;5087858;28;20024;-64
2022/07/25 01:02:38;;;;;;;6.53;2.50;;;;;;;;;;5091359;28;20070;-64
2022/07/25 01:05:04;;;;;;;4.53;1.90;;;;;;;;;;5091375;28;20019;-64
2022/07/25 01:07:31;;;;;;;3.75;1.90;;;;;;;;;;5090858;28;20465;-64
2022/07/25 01:09:58;;;;;;;4.70;1.83;;;;;;;;;;5091218;28;20115;-63
2022/07/25 01:12:23;;;;;;;4.38;1.90;;;;;;;;;;5091128;28;20064;-63
2022/07/25 01:14:49;;;;;;;4.82;1.90;;;;;;;;;;5091158;28;20059;-63
2022/07/25 01:17:15;;;;;;;6.38;1.70;;;;;;;;;;5091130;28;20451;-63
2022/07/25 01:19:40;;;;;;;5.20;1.98;;;;;;;;;;5083757;28;20025;-64
2022/07/25 01:22:06;;;;;;;3.35;1.70;;;;;;;;;;5071699;28;20025;-64
2022/07/25 01:24:34;;;;;;;2.72;1.77;;;;;;;;;;5071574;28;20378;-64
2022/07/25 01:27:00;;;;;;;3.80;2.00;;;;;;;;;;5071780;28;20403;-64
2022/07/25 01:29:25;;;;;;;6.30;1.98;;;;;;;;;;5071695;28;20177;-64
2022/07/25 01:31:51;;;;;;;4.45;1.83;;;;;;;;;;5071797;28;20066;-64
2022/07/25 01:34:16;;;;;;;3.15;1.85;;;;;;;;;;5071856;28;20115;-64
2022/07/25 01:36:42;;;;;;;3.95;1.75;;;;;;;;;;5072276;28;20402;-64
2022/07/25 01:39:07;;;;;;;4.47;2.03;;;;;;;;;;5075514;28;20481;-64
2022/07/25 01:41:33;;;;;;;3.97;1.70;;;;;;;;;;5075453;28;20035;-65
2022/07/25 01:43:59;;;;;;;6.63;2.00;;;;;;;;;;5075472;28;20056;-64
2022/07/25 01:46:24;;;;;;;3.42;1.98;;;;;;;;;;5075422;28;20520;-64
2022/07/25 01:48:50;;;;;;;5.60;2.10;;;;;;;;;;5075166;28;20112;-64
2022/07/25 01:51:15;;;;;;;5.72;2.15;;;;;;;;;;5075169;28;20054;-64
2022/07/25 01:53:41;;;;;;;3.05;1.70;;;;;;;;;;5074868;28;20029;-64
2022/07/25 01:56:07;;;;;;;3.80;1.85;;;;;;;;;;5074568;28;20027;-64
2022/07/25 01:58:33;;;;;;;4.60;1.90;;;;;;;;;;5074502;28;20048;-64
2022/07/25 02:00:58;;;;;;;3.58;1.88;;;;;;;;;;5074599;28;20053;-64
2022/07/25 02:03:30;;;;;;;4.05;1.80;;;;;;;;;;5074737;28;20021;-64
2022/07/25 02:06:03;;;;;;;4.63;1.75;;;;;;;;;;5074738;28;20027;-65
2022/07/25 02:08:29;;;;;;;3.55;1.80;;;;;;;;;;5075034;28;20530;-63
2022/07/25 02:10:55;;;;;;;3.60;2.30;;;;;;;;;;5074880;28;20040;-64
2022/07/25 02:13:21;;;;;;;5.18;1.90;;;;;;;;;;5074803;28;20020;-64
2022/07/25 02:15:47;;;;;;;4.20;1.90;;;;;;;;;;5074797;28;20063;-64
2022/07/25 02:18:13;;;;;;;4.43;2.28;;;;;;;;;;5074735;28;20044;-65
2022/07/25 02:20:38;;;;;;;3.03;1.77;;;;;;;;;;5074445;28;20098;-63
2022/07/25 02:23:04;;;;;;;3.45;1.85;;;;;;;;;;5074596;28;20025;-65
2022/07/25 02:25:31;;;;;;;2.90;1.88;;;;;;;;;;5074552;28;20045;-64
2022/07/25 02:27:57;;;;;;;5.13;1.90;;;;;;;;;;5074678;28;20381;-65
2022/07/25 02:30:23;;;;;;;4.47;1.92;;;;;;;;;;5074615;28;20017;-64
2022/07/25 02:32:49;;;;;;;4.22;2.10;;;;;;;;;;5074550;28;20405;-64
2022/07/25 02:35:14;;;;;;;5.97;1.88;;;;;;;;;;5074326;28;20474;-63
2022/07/25 02:37:40;;;;;;;3.83;2.00;;;;;;;;;;5074572;28;20021;-64
2022/07/25 02:40:07;;;;;;;4.40;1.88;;;;;;;;;;5073171;28;20090;-64
2022/07/25 02:42:33;;;;;;;2.30;1.65;;;;;;;;;;5074303;28;20025;-64
2022/07/25 02:44:58;;;;;;;4.85;1.83;;;;;;;;;;5073715;28;20390;-64
2022/07/25 02:47:24;;;;;;;3.70;2.05;;;;;;;;;;5073785;28;20034;-63
2022/07/25 02:49:49;;;;;;;2.78;1.92;;;;;;;;;;5072648;28;20059;-63
2022/07/25 02:52:15;;;;;;;2.70;1.85;;;;;;;;;;5073771;28;20439;-63
2022/07/25 02:54:40;;;;;;;3.22;1.90;;;;;;;;;;5073641;28;20024;-64
2022/07/25 02:57:06;;;;;;;2.22;1.65;;;;;;;;;;5073665;28;20028;-64
2022/07/25 02:59:31;;;;;;;8.07;2.13;;;;;;;;;;5073932;28;20435;-64
2022/07/25 03:01:57;;;;;;;5.82;2.88;;;;;;;;;;5074105;28;20542;-64
2022/07/25 03:04:22;;;;;;;4.05;1.92;;;;;;;;;;5073874;28;20067;-64
2022/07/25 03:06:48;;;;;;;3.95;1.88;;;;;;;;;;5073874;28;20032;-64
2022/07/25 03:09:13;;;;;;;3.75;1.52;;;;;;;;;;5073867;28;20028;-64
2022/07/25 03:11:39;;;;;;;2.88;2.00;;;;;;;;;;5074023;28;20075;-63
2022/07/25 03:14:07;;;;;;;3.35;1.80;;;;;;;;;;5073734;28;20028;-64
2022/07/25 03:16:32;;;;;;;5.38;1.80;;;;;;;;;;5072897;28;20028;-64
2022/07/25 03:18:58;;;;;;;3.70;1.80;;;;;;;;;;5072778;28;20548;-64
2022/07/25 03:21:23;;;;;;;5.32;2.03;;;;;;;;;;5072974;28;20496;-64
2022/07/25 03:23:49;;;;;;;7.45;1.88;;;;;;;;;;5073215;28;20052;-64
2022/07/25 03:26:14;;;;;;;4.95;2.03;;;;;;;;;;5073419;28;20072;-64
2022/07/25 03:28:40;;;;;;;5.90;1.75;;;;;;;;;;5073562;28;20028;-64
2022/07/25 03:31:06;;;;;;;2.72;1.63;;;;;;;;;;5073544;28;20036;-64
2022/07/25 03:33:31;;;;;;;2.72;1.75;;;;;;;;;;5073430;28;20351;-64
2022/07/25 03:35:57;;;;;;;6.82;2.00;;;;;;;;;;5073136;28;20167;-64
2022/07/25 03:38:23;;;;;;;4.30;1.80;;;;;;;;;;5073296;28;20112;-64
2022/07/25 03:40:49;;;;;;;2.53;1.70;;;;;;;;;;5073422;28;20028;-63
2022/07/25 03:43:15;;;;;;;2.80;1.88;;;;;;;;;;5073209;28;20025;-64
2022/07/25 03:45:40;;;;;;;4.60;1.85;;;;;;;;;;5073099;28;20099;-63
2022/07/25 03:48:06;;;;;;;4.50;1.67;;;;;;;;;;5072364;28;20024;-63
2022/07/25 03:50:32;;;;;;;3.40;1.85;;;;;;;;;;5072450;28;20078;-63
2022/07/25 03:52:57;;;;;;;2.95;1.52;;;;;;;;;;5072425;28;20074;-64
2022/07/25 03:55:23;;;;;;;2.97;1.90;;;;;;;;;;5072190;28;20086;-64
2022/07/25 03:57:48;;;;;;;3.22;1.75;;;;;;;;;;5073111;28;20416;-64
2022/07/25 04:00:14;;;;;;;4.65;2.17;;;;;;;;;;5072907;28;20024;-64
2022/07/25 04:02:40;;;;;;;2.67;1.95;;;;;;;;;;5072682;28;20032;-64
2022/07/25 04:05:06;;;;;;;3.25;1.77;;;;;;;;;;5072760;28;20056;-63
2022/07/25 04:07:32;;;;;;;3.70;1.88;;;;;;;;;;5072517;28;20478;-64
2022/07/25 04:09:58;;;;;;;6.60;1.95;;;;;;;;;;5072742;28;20084;-63
2022/07/25 04:12:23;;;;;;;5.82;2.00;;;;;;;;;;5072850;28;20469;-63
2022/07/25 04:14:49;;;;;;;3.45;1.70;;;;;;;;;;5072664;28;20131;-64
2022/07/25 04:17:15;;;;;;;3.13;1.70;;;;;;;;;;5071977;28;20037;-63
2022/07/25 04:19:41;;;;;;;3.03;1.73;;;;;;;;;;5071824;28;20037;-63
2022/07/25 04:22:06;;;;;;;4.13;1.80;;;;;;;;;;5071838;28;20359;-63
2022/07/25 04:24:32;;;;;;;5.13;2.00;;;;;;;;;;5071653;28;20623;-64
2022/07/25 04:26:57;;;;;;;4.80;1.85;;;;;;;;;;5072126;28;20047;-64
2022/07/25 04:29:24;;;;;;;2.65;1.80;;;;;;;;;;5072283;28;20084;-63
2022/07/25 04:31:50;;;;;;;3.22;2.08;;;;;;;;;;5072203;28;20481;-64
2022/07/25 04:34:15;;;;;;;2.83;1.70;;;;;;;;;;5072158;28;20060;-63
2022/07/25 04:36:41;;;;;;;2.45;1.58;;;;;;;;;;5072207;28;20086;-64
2022/07/25 04:39:06;;;;;;;2.97;1.83;;;;;;;;;;5071786;28;20048;-64
2022/07/25 04:41:32;;;;;;;4.18;1.80;;;;;;;;;;5072235;28;20056;-64
2022/07/25 04:43:58;;;;;;;5.57;2.10;;;;;;;;;;5072137;28;20029;-66
2022/07/25 04:46:23;;;;;;;4.15;1.73;;;;;;;;;;5069965;28;20025;-63
2022/07/25 04:48:49;;;;;;;4.72;1.90;;;;;;;;;;5071387;28;20032;-63
2022/07/25 04:51:16;;;;;;;3.63;1.80;;;;;;;;;;5071516;28;20531;-66
2022/07/25 04:53:42;;;;;;;3.42;1.80;;;;;;;;;;5071602;28;20028;-63
2022/07/25 04:56:08;;;;;;;3.58;1.73;;;;;;;;;;5071819;28;20028;-63
2022/07/25 04:58:33;;;;;;;2.90;1.60;;;;;;;;;;5072064;28;20439;-63
2022/07/25 05:00:59;;;;;;;5.43;1.88;;;;;;;;;;5071853;28;20455;-63
2022/07/25 05:03:25;;;;;;;3.17;1.70;;;;;;;;;;5072105;28;20036;-66
2022/07/25 05:05:51;;;;;;;3.50;1.73;;;;;;;;;;5072025;28;20032;-63
2022/07/25 05:08:16;;;;;;;7.00;1.65;;;;;;;;;;5072076;28;20033;-63
2022/07/25 05:10:42;;;;;;;2.95;1.70;;;;;;;;;;5072084;28;20063;-64
2022/07/25 05:13:08;;;;;;;2.47;1.70;;;;;;;;;;5075267;28;20025;-63
2022/07/25 05:15:34;;;;;;;3.33;1.70;;;;;;;;;;5076020;28;20028;-63
2022/07/25 05:17:59;;;;;;;2.28;1.52;;;;;;;;;;5075352;28;20118;-64
2022/07/25 05:20:25;;;;;;;3.95;1.80;;;;;;;;;;5075231;28;20028;-63
2022/07/25 05:22:51;;;;;;;3.13;1.50;;;;;;;;;;5075157;28;20016;-63
2022/07/25 05:25:18;;;;;;;3.25;1.75;;;;;;;;;;5074998;28;20576;-64
2022/07/25 05:27:44;;;;;;;4.07;1.83;;;;;;;;;;5075646;28;20078;-63
2022/07/25 05:30:11;;;;;;;2.60;1.65;;;;;;;;;;5075442;28;20032;-63
2022/07/25 05:32:38;;;;;;;3.90;1.85;;;;;;;;;;5075595;28;20436;-64
2022/07/25 05:35:06;;;;;;;2.42;1.65;;;;;;;;;;5075576;28;20094;-64
2022/07/25 05:37:33;;;;;;;5.97;1.80;;;;;;;;;;5075474;28;20036;-63
2022/07/25 05:39:58;;;;;;;4.22;1.70;;;;;;;;;;5075577;28;20082;-63
2022/07/25 05:42:24;;;;;;;4.80;1.60;;;;;;;;;;5075662;28;20020;-64
2022/07/25 05:44:49;;;;;;;3.38;1.67;;;;;;;;;;5074952;28;20029;-64
2022/07/25 05:47:15;;;;;;;2.80;1.50;;;;;;;;;;5074835;28;20020;-63
2022/07/25 05:49:41;;;;;;;5.63;1.58;;;;;;;;;;5074673;28;20541;-63
2022/07/25 05:52:06;;;;;;;5.35;1.85;;;;;;;;;;5074818;28;20484;-63
2022/07/25 05:54:33;;;;;;;3.15;1.60;;;;;;;;;;5074854;28;20367;-63
2022/07/25 05:57:00;;;;;;;3.20;1.60;;;;;;;;;;5075271;28;20036;-63
2022/07/25 05:59:25;;;;;;;3.38;1.85;;;;;;;;;;5075067;28;20024;-64
2022/07/25 06:01:51;;;;;;;4.40;1.65;;;;;;;;;;5075311;28;20032;-63
2022/07/25 06:04:16;;;;;;;2.95;1.50;;;;;;;;;;5074896;28;20053;-64
2022/07/25 06:06:42;;;;;;;2.40;1.48;;;;;;;;;;5074833;28;20016;-64
2022/07/25 06:09:07;;;;;;;6.40;1.70;;;;;;;;;;5073609;28;20254;-64
2022/07/25 06:11:33;;;;;;;4.45;1.88;;;;;;;;;;5075238;28;20021;-64
2022/07/25 06:13:58;;;;;;;5.38;1.80;;;;;;;;;;5074650;28;20028;-63
2022/07/25 06:16:24;;;;;;;5.70;1.55;;;;;;;;;;5074052;28;20067;-63
2022/07/25 06:18:50;;;;;;;3.65;1.65;;;;;;;;;;5074089;28;20025;-63
2022/07/25 06:21:15;;;;;;;4.22;1.67;;;;;;;;;;5074234;28;20052;-63
2022/07/25 06:23:41;;;;;;;2.03;1.42;;;;;;;;;;5073041;28;20025;-63
2022/07/25 06:26:10;;;;;;;5.75;1.63;;;;;;;;;;5074598;28;20049;-64
2022/07/25 06:28:37;;;;;;;3.83;1.65;;;;;;;;;;5074100;28;20043;-64
2022/07/25 06:31:02;;;;;;;2.58;1.40;;;;;;;;;;5074557;28;20470;-64
2022/07/25 06:33:28;;;;;;;2.95;1.83;;;;;;;;;;5074640;28;20044;-64
2022/07/25 06:35:53;;;;;;;3.08;1.55;;;;;;;;;;5074547;28;20369;-64
2022/07/25 06:38:19;;;;;;;2.72;1.50;;;;;;;;;;5074552;28;20028;-65
2022/07/25 06:40:45;;;;;;;3.20;1.63;;;;;;;;;;5074425;28;20044;-64
2022/07/25 06:43:11;;;;;;;3.40;1.52;;;;;;;;;;5074404;28;20028;-65
2022/07/25 06:45:45;;;;;;;6.00;1.65;;;;;;;;;;5074536;28;20359;-65
2022/07/25 06:48:11;;;;;;;2.47;1.40;;;;;;;;;;5073945;28;20032;-65
2022/07/25 06:50:36;;;;;;;7.88;2.00;;;;;;;;;;5073781;28;20428;-64
2022/07/25 06:53:02;;;;;;;2.70;1.45;;;;;;;;;;5073660;28;20021;-64
2022/07/25 06:55:27;;;;;;;2.50;1.50;;;;;;;;;;5073283;28;20021;-64
2022/07/25 06:57:53;;;;;;;2.92;1.60;;;;;;;;;;5074040;28;20346;-65
2022/07/25 07:00:19;;;;;;;3.33;1.50;;;;;;;;;;5076428;28;20396;-65
2022/07/25 07:02:51;;;;;;;4.70;1.73;;;;;;;;;;5087576;28;20039;-65
2022/07/25 07:05:17;;;;;;;3.78;1.70;;;;;;;;;;5093125;28;20036;-65
2022/07/25 07:07:43;;;;;;;2.97;1.27;;;;;;;;;;5093747;28;20548;-65
2022/07/25 07:10:09;;;;;;;3.33;1.50;;;;;;;;;;5093647;28;20099;-65
2022/07/25 07:12:35;;;;;;;4.22;1.85;;;;;;;;;;5093765;28;20085;-65
2022/07/25 07:15:01;;;;;;;6.75;1.30;;;;;;;;;;5093271;28;20034;-65
2022/07/25 07:17:26;;;;;;;3.90;1.40;;;;;;;;;;5093601;28;20036;-62
2022/07/25 07:19:52;;;;;;;4.13;1.58;;;;;;;;;;5093227;28;20028;-63
2022/07/25 07:22:17;;;;;;;2.05;1.20;;;;;;;;;;5093509;28;20028;-64
2022/07/25 07:24:43;;;;;;;2.80;1.40;;;;;;;;;;5093096;28;20128;-64
2022/07/25 07:27:08;;;;;;;7.10;1.67;;;;;;;;;;5093129;28;20468;-65
2022/07/25 07:29:34;;;;;;;5.03;1.55;;;;;;;;;;5093420;28;20076;-65
2022/07/25 07:32:00;;;;;;;5.43;1.75;;;;;;;;;;5093427;28;20354;-65
2022/07/25 07:34:26;;;;;;;2.10;1.30;;;;;;;;;;5092800;28;20380;-65
2022/07/25 07:36:51;;;;;;;3.97;1.50;;;;;;;;;;5093480;28;20028;-65
2022/07/25 07:39:17;;;;;;;4.95;1.70;;;;;;;;;;5092940;28;20285;-65
2022/07/25 07:41:43;;;;;;;4.18;1.52;;;;;;;;;;5093165;28;20027;-65
2022/07/25 07:44:08;;;;;;;2.17;1.40;;;;;;;;;;5093300;28;20469;-65
2022/07/25 07:46:34;;;;;;;5.03;1.77;;;;;;;;;;5092221;28;20039;-65
2022/07/25 07:48:59;;;;;;;2.60;1.45;;;;;;;;;;5092093;28;20032;-65
2022/07/25 07:51:25;;;;;;;4.15;1.52;;;;;;;;;;5092512;28;20476;-65
2022/07/25 07:56:34;;;;;;;2.53;1.45;;;;;;;;;;5093062;28;20542;-65
2022/07/25 07:59:00;;;;;;;4.45;1.63;;;;;;;;;;5092961;28;20031;-65
2022/07/25 08:01:26;;;;;;;2.25;1.40;;;;;;;;;;5093044;28;20130;-65
2022/07/25 08:03:51;;;;;;;3.97;1.30;;;;;;;;;;5092387;28;20510;-65
2022/07/25 08:06:17;;;;;;;6.93;1.50;;;;;;;;;;5092529;28;20101;-65
2022/07/25 08:08:43;;;;;;;3.67;1.40;;;;;;;;;;5090235;28;20104;-65
2022/07/25 08:11:08;;;;;;;4.15;1.80;;;;;;;;;;5087296;28;20543;-65
2022/07/25 08:13:36;;;;;;;3.95;1.65;;;;;;;;;;5112288;28;20062;-65
2022/07/25 08:16:03;;;;;;;3.70;1.55;;;;;;;;;;5112737;28;20329;-65
2022/07/25 08:18:31;;;;;;;2.38;1.40;;;;;;;;;;5112444;28;20107;-64
2022/07/25 08:20:57;;;;;;;1.92;1.55;;;;;;;;;;5093780;28;20067;-65
2022/07/25 08:23:26;;;;;;;3.13;1.60;;;;;;;;;;5111153;28;20702;-64
2022/07/25 08:25:52;;;;;;;3.80;1.90;;;;;;;;;;5111820;28;20048;-65
2022/07/25 08:28:18;;;;;;;5.18;1.90;;;;;;;;;;5112213;28;20039;-65
2022/07/25 08:30:44;;;;;;;2.25;1.52;;;;;;;;;;5092583;28;20366;-64
2022/07/25 08:33:17;;;;;;;3.03;1.80;;;;;;;;;;5092765;28;20027;-67
2022/07/25 08:35:47;;;;;;;4.75;1.80;;;;;;;;;;5092529;28;20076;-65
2022/07/25 08:38:12;;;;;;;4.47;2.08;;;;;;;;;;5092408;28;20052;-65
2022/07/25 08:40:38;;;;;;;4.35;2.03;;;;;;;;;;5091198;28;20055;-65
2022/07/25 08:43:04;;;;;;;3.47;2.00;;;;;;;;;;5092674;28;20016;-65
2022/07/25 08:45:32;;;;;;;3.38;1.70;;;;;;;;;;5092401;28;20358;-65
2022/07/25 08:47:57;;;;;;;4.30;1.80;;;;;;;;;;5091711;28;20651;-65
2022/07/25 08:50:26;;;;;;;3.88;1.90;;;;;;;;;;5092439;28;20158;-65
2022/07/25 08:52:52;;;;;;;2.92;1.90;;;;;;;;;;5092136;28;20434;-66
2022/07/25 08:55:20;;;;;;;5.65;1.80;;;;;;;;;;5092459;28;20035;-65
2022/07/25 08:57:52;;;;;;;4.47;2.00;;;;;;;;;;5090929;28;20409;-65
2022/07/25 09:00:20;;;;;;;3.38;2.03;;;;;;;;;;5092518;28;20086;-64
2022/07/25 09:03:01;;;;;;;3.25;1.83;;;;;;;;;;5090947;28;20473;-65
2022/07/25 09:05:31;;;;;;;4.40;1.95;;;;;;;;;;5092150;28;20031;-65
2022/07/25 09:07:57;;;;;;;4.10;1.95;;;;;;;;;;5082942;28;20029;-65
2022/07/25 09:10:25;;;;;;;4.32;2.00;;;;;;;;;;5072142;28;20024;-65
2022/07/25 09:12:53;;;;;;;6.20;2.30;;;;;;;;;;5071886;28;20021;-65
2022/07/25 09:15:35;;;;;;;10.63;2.22;;;;;;;;;;5075807;28;20472;-65
2022/07/25 09:18:05;;;;;;;2.47;1.88;;;;;;;;;;5092290;28;20488;-65
2022/07/25 09:20:44;;;;;;;3.03;1.98;;;;;;;;;;5091964;28;20036;-65
2022/07/25 09:23:12;;;;;;;3.40;2.30;;;;;;;;;;5092161;28;20553;-65
2022/07/25 09:25:38;;;;;;;3.85;2.13;;;;;;;;;;5091788;28;20507;-66
2022/07/25 09:28:15;;;;;;;3.05;2.35;;;;;;;;;;5092109;28;20024;-65
2022/07/25 09:30:55;;;;;;;6.00;2.50;;;;;;;;;;5090291;28;20121;-65
2022/07/25 09:33:23;;;;;;;8.27;2.45;;;;;;;;;;5073514;28;20021;-65
2022/07/25 09:35:49;;;;;;;4.70;2.30;;;;;;;;;;5078166;28;20020;-65
2022/07/25 09:38:16;;;;;;;3.40;2.08;;;;;;;;;;5092056;28;20055;-65
2022/07/25 09:41:00;;;;;;;4.63;2.15;;;;;;;;;;5078146;28;20545;-64
2022/07/25 09:43:42;;;;;;;3.30;2.30;;;;;;;;;;5084797;28;20028;-65
2022/07/25 09:46:08;;;;;;;2.97;2.60;;;;;;;;;;5071781;28;20432;-65
2022/07/25 09:48:36;;;;;;;5.15;2.50;;;;;;;;;;5071492;28;20029;-65
2022/07/25 09:51:02;;;;;;;4.72;2.13;;;;;;;;;;5071386;28;20034;-65
2022/07/25 09:53:28;;;;;;;3.58;2.38;;;;;;;;;;5083818;28;20020;-64
2022/07/25 09:55:56;;;;;;;6.20;2.63;;;;;;;;;;5091184;28;20020;-64
2022/07/25 09:58:26;;;;;;;9.10;2.70;;;;;;;;;;5093328;28;20051;-64
2022/07/25 10:00:59;;;;;;;14.55;2.75;;;;;;;;;;5095309;28;20028;-65
2022/07/25 10:03:46;;;;;;;11.68;2.50;;;;;;;;;;5095482;28;20031;-64
2022/07/25 10:06:23;;;;;;;5.72;2.55;;;;;;;;;;5095454;28;20078;-64
2022/07/25 10:08:50;;;;;;;9.40;2.40;;;;;;;;;;5095026;28;20035;-65
2022/07/25 10:11:26;;;;;;;5.07;2.40;;;;;;;;;;5095394;28;20081;-64
2022/07/25 10:13:53;;;;;;;6.35;2.80;;;;;;;;;;5095171;28;20079;-64
2022/07/25 10:16:24;;;;;;;3.38;2.53;;;;;;;;;;5095226;28;20016;-65
2022/07/25 10:18:55;;;;;;;5.78;2.67;;;;;;;;;;5094742;28;20024;-64
2022/07/25 10:21:22;;;;;;;3.83;2.35;;;;;;;;;;5095046;28;20433;-65
2022/07/25 10:24:05;;;;;;;6.80;2.85;;;;;;;;;;5094973;28;20028;-64
2022/07/25 10:26:33;;;;;;;4.63;2.78;;;;;;;;;;5094928;28;20127;-64
2022/07/25 10:29:00;;;;;;;10.32;2.63;;;;;;;;;;5094392;28;20553;-65
2022/07/25 10:31:32;;;;;;;6.25;2.72;;;;;;;;;;5094980;28;20051;-65
2022/07/25 10:34:00;;;;;;;6.80;2.50;;;;;;;;;;5094057;28;20029;-64
2022/07/25 10:36:40;;;;;;;7.28;2.53;;;;;;;;;;5094357;28;20020;-64
2022/07/25 10:39:08;;;;;;;13.95;2.78;;;;;;;;;;5094423;28;20024;-64
2022/07/25 10:41:38;;;;;;;7.97;2.47;;;;;;;;;;5094812;28;20085;-65
2022/07/25 10:44:11;;;;;;;5.72;2.50;;;;;;;;;;5094715;28;20107;-65
2022/07/25 10:46:36;;;;;;;5.45;2.47;;;;;;;;;;5094653;28;20039;-65
2022/07/25 10:49:05;;;;;;;8.98;2.78;;;;;;;;;;5094197;28;20028;-65
2022/07/25 10:51:36;;;;;;;6.43;2.60;;;;;;;;;;5094492;28;20490;-66
2022/07/25 10:54:17;;;;;;;6.72;2.63;;;;;;;;;;5094612;28;20035;-65
2022/07/25 10:56:55;;;;;;;9.02;2.80;;;;;;;;;;5094062;28;20552;-66
2022/07/25 10:59:29;;;;;;;8.85;3.13;;;;;;;;;;5094143;28;20035;-65
2022/07/25 11:01:55;;;;;;;12.73;2.80;;;;;;;;;;5092758;28;20085;-66
2022/07/25 11:04:21;;;;;;;6.07;2.30;;;;;;;;;;5094102;28;20032;-65
2022/07/25 11:06:46;;;;;;;6.93;3.03;;;;;;;;;;5094059;28;20463;-65
2022/07/25 11:09:20;;;;;;;6.20;3.05;;;;;;;;;;5093358;28;20039;-66
2022/07/25 11:11:51;;;;;;;10.13;2.70;;;;;;;;;;5093981;28;20020;-65
2022/07/25 11:14:18;;;;;;;5.10;2.45;;;;;;;;;;5094094;28;20512;-65
2022/07/25 11:16:46;;;;;;;7.25;2.72;;;;;;;;;;5093910;28;20437;-66
2022/07/25 11:19:25;;;;;;;10.68;2.70;;;;;;;;;;5093718;28;20028;-65
2022/07/25 11:21:57;;;;;;;10.07;3.00;;;;;;;;;;5093879;28;20086;-65
2022/07/25 11:24:41;;;;;;;7.63;3.10;;;;;;;;;;5093696;28;20032;-65
2022/07/25 11:27:09;;;;;;;9.30;3.20;;;;;;;;;;5093400;28;20028;-65
2022/07/25 11:29:37;;;;;;;6.20;2.90;;;;;;;;;;5093490;28;20036;-63
2022/07/25 11:32:05;;;;;;;10.65;2.90;;;;;;;;;;5093524;28;20436;-66
2022/07/25 11:34:57;;;;;;;10.13;3.33;;;;;;;;;;5093580;28;20028;-64
2022/07/25 11:37:23;;;;;;;6.53;3.00;;;;;;;;;;5090633;28;20043;-64
2022/07/25 11:39:49;;;;;;;10.25;3.42;;;;;;;;;;5093382;28;20425;-64
2022/07/25 11:42:16;;;;;;;6.25;3.13;;;;;;;;;;5093588;28;20477;-64
2022/07/25 11:44:47;;;;;;;12.05;2.90;;;;;;;;;;5093265;28;20046;-64
2022/07/25 11:47:31;;;;;;;5.68;2.55;;;;;;;;;;5093195;28;20032;-65
2022/07/25 11:50:02;;;;;;;12.73;3.72;;;;;;;;;;5093331;28;20083;-64
2022/07/25 11:52:31;;;;;;;9.02;3.47;;;;;;;;;;5093307;28;20023;-64
2022/07/25 11:55:00;;;;;;;10.35;3.30;;;;;;;;;;5093113;28;20063;-63
2022/07/25 11:57:29;;;;;;;12.68;3.72;;;;;;;;;;5093154;28;20039;-64
2022/07/25 11:59:56;;;;;;;6.28;3.35;;;;;;;;;;5092968;28;20038;-65
2022/07/25 12:02:22;;;;;;;11.63;4.00;;;;;;;;;;5093279;28;20020;-66
2022/07/25 12:04:58;;;;;;;10.85;3.47;;;;;;;;;;5092893;28;20055;-66
2022/07/25 12:07:53;;;;;;;10.90;3.90;;;;;;;;;;5092994;28;20477;-65
2022/07/25 12:10:22;;;;;;;9.23;3.70;;;;;;;;;;5080131;28;20093;-66
2022/07/25 12:12:54;;;;;;;6.43;3.85;;;;;;;;;;5092669;28;20110;-65
2022/07/25 12:15:31;;;;;;;7.30;2.92;;;;;;;;;;5092853;28;20043;-66
2022/07/25 12:17:57;;;;;;;5.78;3.85;;;;;;;;;;5092365;28;20102;-66
2022/07/25 12:20:29;;;;;;;7.10;4.28;;;;;;;;;;5092661;28;20038;-66
2022/07/25 12:22:57;;;;;;;6.38;3.80;;;;;;;;;;5092382;28;20020;-66
2022/07/25 12:25:23;;;;;;;7.00;3.78;;;;;;;;;;5092267;28;20421;-66
2022/07/25 12:27:49;;;;;;;7.65;4.30;;;;;;;;;;5078961;28;20029;-65
2022/07/25 12:30:15;;;;;;;4.68;3.55;;;;;;;;;;5092184;28;20035;-66
2022/07/25 12:32:43;;;;;;;8.90;4.15;;;;;;;;;;5092674;28;20020;-66
2022/07/25 12:35:11;;;;;;;10.98;4.60;;;;;;;;;;5092339;28;20097;-65
2022/07/25 12:37:37;;;;;;;4.05;3.55;;;;;;;;;;5092573;28;20373;-65
2022/07/25 12:40:04;;;;;;;10.07;4.35;;;;;;;;;;5092559;28;20031;-65
2022/07/25 12:42:30;;;;;;;6.13;3.97;;;;;;;;;;5092688;28;20020;-66
2022/07/25 12:44:56;;;;;;;5.85;4.00;;;;;;;;;;5092425;28;20295;-66
2022/07/25 12:47:22;;;;;;;6.72;4.10;;;;;;;;;;5092544;28;20381;-65
2022/07/25 12:49:48;;;;;;;9.52;4.00;;;;;;;;;;5092381;28;20365;-65
2022/07/25 12:52:14;;;;;;;6.72;3.97;;;;;;;;;;5092520;28;20078;-65
2022/07/25 12:54:39;;;;;;;9.73;3.92;;;;;;;;;;5092375;28;20373;-65
2022/07/25 12:57:05;;;;;;;7.70;4.07;;;;;;;;;;5092454;28;20064;-65
2022/07/25 12:59:31;;;;;;;7.88;4.10;;;;;;;;;;5092241;28;20051;-65
2022/07/25 13:01:57;;;;;;;13.63;4.18;;;;;;;;;;5092373;28;20036;-66
2022/07/25 13:04:24;;;;;;;12.00;4.55;;;;;;;;;;5092376;28;20064;-65
2022/07/25 13:06:51;;;;;;;8.88;4.10;;;;;;;;;;5092345;28;20515;-66
2022/07/25 13:09:17;;;;;;;10.20;4.50;;;;;;;;;;5092410;28;20038;-65
2022/07/25 13:11:42;;;;;;;10.40;4.22;;;;;;;;;;5092237;28;20111;-66
2022/07/25 13:14:08;;;;;;;6.47;3.85;;;;;;;;;;5092106;28;20028;-66
2022/07/25 13:16:36;;;;;;;11.60;4.32;;;;;;;;;;5092256;28;20516;-65
2022/07/25 13:19:02;;;;;;;7.15;4.00;;;;;;;;;;5092157;28;20034;-66
2022/07/25 13:21:29;;;;;;;6.00;4.28;;;;;;;;;;5092284;28;20024;-65
2022/07/25 13:23:58;;;;;;;6.40;4.60;;;;;;;;;;5092051;28;20028;-65
2022/07/25 13:26:23;;;;;;;8.15;4.10;;;;;;;;;;5091824;28;20044;-65
2022/07/25 13:28:50;;;;;;;8.23;4.15;;;;;;;;;;5091711;28;20494;-66
2022/07/25 13:31:18;;;;;;;9.82;4.38;;;;;;;;;;5092159;28;20028;-65
2022/07/25 13:33:44;;;;;;;10.20;4.68;;;;;;;;;;5094425;28;20484;-66
2022/07/25 13:36:10;;;;;;;8.98;5.07;;;;;;;;;;5095822;28;20052;-66
2022/07/25 13:38:37;;;;;;;6.05;4.53;;;;;;;;;;5095958;28;20036;-66
2022/07/25 13:41:03;;;;;;;7.93;4.32;;;;;;;;;;5095684;28;20032;-64
2022/07/25 13:43:28;;;;;;;10.32;4.75;;;;;;;;;;5095895;28;20024;-65
2022/07/25 13:45:54;;;;;;;7.72;4.60;;;;;;;;;;5095768;28;20085;-65
2022/07/25 13:48:19;;;;;;;7.68;4.78;;;;;;;;;;5095777;28;20028;-65
2022/07/25 13:50:45;;;;;;;6.80;4.40;;;;;;;;;;5095813;28;20027;-63
2022/07/25 13:53:11;;;;;;;12.23;4.95;;;;;;;;;;5095636;28;20028;-62
2022/07/25 13:55:36;;;;;;;12.50;5.00;;;;;;;;;;5095618;28;20028;-64
2022/07/25 13:58:02;;;;;;;13.50;5.05;;;;;;;;;;5095494;28;20377;-64
2022/07/25 14:00:28;;;;;;;5.97;4.57;;;;;;;;;;5095862;28;20100;-65
2022/07/25 14:02:53;;;;;;;6.55;4.22;;;;;;;;;;5095418;28;20024;-65
2022/07/25 14:05:19;;;;;;;6.07;4.72;;;;;;;;;;5095370;28;20107;-64
2022/07/25 14:07:45;;;;;;;9.82;5.32;;;;;;;;;;5095227;28;20028;-64
2022/07/25 14:10:11;;;;;;;9.60;5.50;;;;;;;;;;5095435;28;20161;-65
2022/07/25 14:12:38;;;;;;;5.68;4.93;;;;;;;;;;5094904;28;20350;-65
2022/07/25 14:15:05;;;;;;;8.50;5.05;;;;;;;;;;5095377;28;20028;-66
2022/07/25 14:17:32;;;;;;;9.65;5.28;;;;;;;;;;5094166;28;20028;-65
2022/07/25 14:19:58;;;;;;;11.55;5.20;;;;;;;;;;5095100;28;20024;-65
2022/07/25 14:22:23;;;;;;;6.47;4.13;;;;;;;;;;5095446;28;20086;-66
2022/07/25 14:24:49;;;;;;;10.15;4.70;;;;;;;;;;5094789;28;20047;-65
2022/07/25 14:27:14;;;;;;;9.50;4.82;;;;;;;;;;5095188;28;20549;-66
2022/07/25 14:29:41;;;;;;;9.50;5.25;;;;;;;;;;5094876;28;20123;-66
2022/07/25 14:32:07;;;;;;;6.63;4.78;;;;;;;;;;5095050;28;20117;-64
2022/07/25 14:34:33;;;;;;;9.50;5.00;;;;;;;;;;5094376;28;20024;-64
2022/07/25 14:37:00;;;;;;;12.65;5.20;;;;;;;;;;5094888;28;20473;-64
2022/07/25 14:39:26;;;;;;;9.60;4.93;;;;;;;;;;5094776;28;20031;-65
2022/07/25 14:41:51;;;;;;;15.80;5.40;;;;;;;;;;5094760;28;20324;-64
2022/07/25 14:44:17;;;;;;;7.82;5.13;;;;;;;;;;5093790;28;20028;-65